createdAt,value
2019-01-24T00:00:53.785Z,83.70
2019-01-24T00:03:23.014Z,83.90
2019-01-24T00:05:52.236Z,83.00
2019-01-24T00:08:21.460Z,83.50
2019-01-24T00:10:50.657Z,84.50
2019-01-24T00:13:19.854Z,83.10
2019-01-24T00:15:49.078Z,82.30
2019-01-24T00:18:18.377Z,81.70
2019-01-24T00:20:47.660Z,83.30
2019-01-24T00:23:17.025Z,81.40
2019-01-24T00:25:46.385Z,83.30
2019-01-24T00:28:15.729Z,82.90
2019-01-24T00:30:45.023Z,83.10
2019-01-24T00:33:14.355Z,84.20
2019-01-24T00:35:43.614Z,84.00
2019-01-24T00:38:12.925Z,83.80
2019-01-24T00:40:42.257Z,85.10
2019-01-24T00:43:11.505Z,84.40
2019-01-24T00:45:40.805Z,83.40
2019-01-24T00:48:10.200Z,84.30
2019-01-24T00:50:39.517Z,83.50
2019-01-24T00:53:08.754Z,83.30
2019-01-24T00:55:37.942Z,83.60
2019-01-24T00:58:07.134Z,83.30
2019-01-24T01:00:36.458Z,83.40
2019-01-24T01:03:06.269Z,82.60
2019-01-24T01:05:35.585Z,83.20
2019-01-24T01:08:05.088Z,83.80
2019-01-24T01:10:34.259Z,83.20
2019-01-24T01:13:03.847Z,83.80
2019-01-24T01:15:33.116Z,83.70
2019-01-24T01:18:02.371Z,83.90
2019-01-24T01:20:31.637Z,84.60
2019-01-24T01:23:01.004Z,84.70
2019-01-24T01:25:30.344Z,83.70
2019-01-24T01:27:59.658Z,85.60
2019-01-24T01:30:29.012Z,85.20
2019-01-24T01:32:58.246Z,84.80
2019-01-24T01:35:27.496Z,84.60
2019-01-24T01:37:56.720Z,85.40
2019-01-24T01:40:25.998Z,85.70
2019-01-24T01:42:55.439Z,85.50
2019-01-24T01:45:24.731Z,85.40
2019-01-24T01:47:53.997Z,85.30
2019-01-24T01:50:25.017Z,85.90
2019-01-24T01:52:54.401Z,85.20
2019-01-24T01:55:23.640Z,84.10
2019-01-24T01:57:52.877Z,84.40
2019-01-24T02:00:23.599Z,84.10
2019-01-24T02:02:52.965Z,85.50
2019-01-24T02:05:22.225Z,84.90
2019-01-24T02:07:52.077Z,84.60
2019-01-24T02:10:22.975Z,83.70
2019-01-24T02:12:52.555Z,84.10
2019-01-24T02:15:22.757Z,84.70
2019-01-24T02:17:52.349Z,85.30
2019-01-24T02:20:23.036Z,84.70
2019-01-24T02:22:53.153Z,85.40
2019-01-24T02:25:23.063Z,86.00
2019-01-24T02:27:52.315Z,85.10
2019-01-24T02:30:29.496Z,84.70
2019-01-24T02:32:58.751Z,85.10
2019-01-24T02:35:28.064Z,84.90
2019-01-24T02:37:57.438Z,84.60
2019-01-24T02:40:26.613Z,84.60
2019-01-24T02:42:55.889Z,85.40
2019-01-24T02:45:25.487Z,85.50
2019-01-24T02:47:54.731Z,85.50
2019-01-24T02:50:24.011Z,84.30
2019-01-24T02:52:53.371Z,82.90
2019-01-24T02:55:22.624Z,83.00
2019-01-24T02:57:51.892Z,83.20
2019-01-24T03:00:22.583Z,83.10
2019-01-24T03:02:52.034Z,84.50
2019-01-24T03:05:22.589Z,84.40
2019-01-24T03:07:52.541Z,83.70
2019-01-24T03:10:21.722Z,84.60
2019-01-24T03:12:51.393Z,85.20
2019-01-24T03:15:22.324Z,84.60
2019-01-24T03:17:51.730Z,84.20
2019-01-24T03:20:21.074Z,82.90
2019-01-24T03:22:50.377Z,83.60
2019-01-24T03:25:20.024Z,83.90
2019-01-24T03:27:49.349Z,84.40
2019-01-24T03:30:20.886Z,83.70
2019-01-24T03:32:50.462Z,85.30
2019-01-24T03:35:22.188Z,85.00
2019-01-24T03:37:51.875Z,84.30
2019-01-24T03:40:21.663Z,85.60
2019-01-24T03:42:50.959Z,85.10
2019-01-24T03:45:20.666Z,85.70
2019-01-24T03:47:49.995Z,86.70
2019-01-24T03:50:20.817Z,85.80
2019-01-24T03:52:50.952Z,85.20
2019-01-24T03:55:21.774Z,85.50
2019-01-24T03:57:51.070Z,84.60
2019-01-24T04:00:25.100Z,85.40
2019-01-24T04:02:54.862Z,85.10
2019-01-24T04:05:24.130Z,85.20
2019-01-24T04:07:53.993Z,84.70
2019-01-24T04:10:23.638Z,85.40
2019-01-24T04:12:52.896Z,85.70
2019-01-24T04:15:24.403Z,85.50
2019-01-24T04:17:53.666Z,84.50
2019-01-24T04:20:23.021Z,85.90
2019-01-24T04:22:52.288Z,84.70
2019-01-24T04:25:21.485Z,84.00
2019-01-24T04:27:50.765Z,84.00
2019-01-24T04:30:22.353Z,84.10
2019-01-24T04:32:51.682Z,86.70
2019-01-24T04:35:21.260Z,85.50
2019-01-24T04:37:50.613Z,86.20
2019-01-24T04:40:20.944Z,87.40
2019-01-24T04:42:50.476Z,87.10
2019-01-24T04:45:19.807Z,85.80
2019-01-24T04:47:49.068Z,85.10
2019-01-24T04:50:19.020Z,85.00
2019-01-24T04:52:48.676Z,87.10
2019-01-24T04:55:19.753Z,86.40
2019-01-24T04:57:49.312Z,85.40
2019-01-24T05:00:27.188Z,87.00
2019-01-24T05:02:56.560Z,87.30
2019-01-24T05:05:27.967Z,88.80
2019-01-24T05:07:57.159Z,87.10
2019-01-24T05:10:26.394Z,86.90
2019-01-24T05:12:55.676Z,88.80
2019-01-24T05:15:25.049Z,87.90
2019-01-24T05:17:54.306Z,86.80
2019-01-24T05:20:23.572Z,88.10
2019-01-24T05:22:52.969Z,89.70
2019-01-24T05:25:22.149Z,89.40
2019-01-24T05:27:51.403Z,88.50
2019-01-24T05:30:23.468Z,89.50
2019-01-24T05:32:52.818Z,88.80
2019-01-24T05:35:22.072Z,90.10
2019-01-24T05:37:51.451Z,90.80
2019-01-24T05:40:20.710Z,91.10
2019-01-24T05:42:50.128Z,90.20
2019-01-24T05:45:19.534Z,90.40
2019-01-24T05:47:48.944Z,89.90
2019-01-24T05:50:18.249Z,89.30
2019-01-24T05:52:47.445Z,89.80
2019-01-24T05:55:16.719Z,90.80
2019-01-24T05:57:45.940Z,89.70
2019-01-24T06:00:21.720Z,91.50
2019-01-24T06:02:51.046Z,91.10
2019-01-24T06:05:20.277Z,89.60
2019-01-24T06:07:49.499Z,90.00
2019-01-24T06:10:18.887Z,89.20
2019-01-24T06:12:48.167Z,89.40
2019-01-24T06:15:17.751Z,90.00
2019-01-24T06:17:47.121Z,88.80
2019-01-24T06:20:16.958Z,89.20
2019-01-24T06:22:46.323Z,90.70
2019-01-24T06:25:15.820Z,90.20
2019-01-24T06:27:45.243Z,90.50
2019-01-24T06:30:17.613Z,91.70
2019-01-24T06:32:49.264Z,91.10
2019-01-24T06:35:18.607Z,91.70
2019-01-24T06:37:47.820Z,91.90
2019-01-24T06:40:17.076Z,91.80
2019-01-24T06:42:46.413Z,91.60
2019-01-24T06:45:20.693Z,90.70
2019-01-24T06:47:50.589Z,89.70
2019-01-24T06:50:20.445Z,88.40
2019-01-24T06:52:50.423Z,87.60
2019-01-24T06:55:22.604Z,87.10
2019-01-24T06:57:51.969Z,87.00
2019-01-24T07:00:21.529Z,88.50
2019-01-24T07:02:50.709Z,87.70
2019-01-24T07:05:20.037Z,87.30
2019-01-24T07:07:49.732Z,87.70
2019-01-24T07:10:20.034Z,88.50
2019-01-24T07:12:49.358Z,89.50
2019-01-24T07:15:20.510Z,89.30
2019-01-24T07:17:49.686Z,88.50
2019-01-24T07:20:19.188Z,86.90
2019-01-24T07:22:48.455Z,87.20
2019-01-24T07:25:21.428Z,88.40
2019-01-24T07:27:50.941Z,88.00
2019-01-24T07:30:20.554Z,86.60
2019-01-24T07:32:50.010Z,86.30
2019-01-24T07:35:19.619Z,84.70
2019-01-24T07:37:49.013Z,84.50
2019-01-24T07:40:18.832Z,83.90
2019-01-24T07:42:48.603Z,84.60
2019-01-24T07:45:24.033Z,84.70
2019-01-24T07:47:53.293Z,84.40
2019-01-24T07:50:22.552Z,83.10
2019-01-24T07:52:51.914Z,83.80
2019-01-24T07:55:21.180Z,83.30
2019-01-24T07:57:50.823Z,83.60
2019-01-24T08:00:22.562Z,83.60
2019-01-24T08:02:51.859Z,83.60
2019-01-24T08:05:21.512Z,85.40
2019-01-24T08:07:50.803Z,86.10
2019-01-24T08:10:20.669Z,86.30
2019-01-24T08:12:49.879Z,86.60
2019-01-24T08:15:20.178Z,86.30
2019-01-24T08:17:50.053Z,85.90
2019-01-24T08:20:24.382Z,84.80
2019-01-24T08:22:53.643Z,85.00
2019-01-24T08:25:22.937Z,83.00
2019-01-24T08:27:52.277Z,80.90
2019-01-24T08:30:26.946Z,80.90
2019-01-24T08:32:56.186Z,80.70
2019-01-24T08:35:25.378Z,80.70
2019-01-24T08:37:54.690Z,80.30
2019-01-24T08:40:24.317Z,79.80
2019-01-24T08:42:53.649Z,79.60
2019-01-24T08:45:23.118Z,80.50
2019-01-24T08:47:52.752Z,80.90
2019-01-24T08:50:23.347Z,81.10
2019-01-24T08:52:52.671Z,78.70
2019-01-24T08:55:42.632Z,78.70
2019-01-24T08:58:12.697Z,80.10
2019-01-24T09:00:42.194Z,78.60
2019-01-24T09:03:12.947Z,79.30
2019-01-24T09:05:42.270Z,79.50
2019-01-24T09:08:11.481Z,79.90
2019-01-24T09:10:41.394Z,80.20
2019-01-24T09:13:10.798Z,79.40
2019-01-24T09:15:40.192Z,79.50
2019-01-24T09:18:09.922Z,79.20
2019-01-24T09:20:39.168Z,79.10
2019-01-24T09:23:08.715Z,78.40
2019-01-24T09:25:38.390Z,79.60
2019-01-24T09:28:14.626Z,80.60
2019-01-24T09:30:38.629Z,79.60
2019-01-24T09:33:07.839Z,79.90
2019-01-24T09:35:37.084Z,79.60
2019-01-24T09:38:06.411Z,79.40
2019-01-24T09:40:36.069Z,79.50
2019-01-24T09:43:05.276Z,79.80
2019-01-24T09:45:34.626Z,79.80
2019-01-24T09:48:04.793Z,79.40
2019-01-24T09:50:33.964Z,79.00
2019-01-24T09:53:03.298Z,78.80
2019-01-24T09:55:32.657Z,79.70
2019-01-24T09:58:01.993Z,80.60
2019-01-24T10:00:33.531Z,79.30
2019-01-24T10:03:03.156Z,78.70
2019-01-24T10:05:32.433Z,79.40
2019-01-24T10:08:01.748Z,78.90
2019-01-24T10:10:31.116Z,79.30
2019-01-24T10:13:00.498Z,78.50
2019-01-24T10:15:29.789Z,77.40
2019-01-24T10:17:59.053Z,77.90
2019-01-24T10:20:28.907Z,76.90
2019-01-24T10:22:58.221Z,77.50
2019-01-24T10:25:33.534Z,77.80
2019-01-24T10:28:02.862Z,77.20
2019-01-24T10:30:32.213Z,77.30
2019-01-24T10:33:01.811Z,76.80
2019-01-24T10:35:31.154Z,77.90
2019-01-24T10:38:00.438Z,77.20
2019-01-24T10:40:31.456Z,76.80
2019-01-24T10:43:01.012Z,75.20
2019-01-24T10:45:30.364Z,76.20
2019-01-24T10:47:59.775Z,75.90
2019-01-24T10:50:29.381Z,74.80
2019-01-24T10:52:58.710Z,74.20
2019-01-24T10:55:29.107Z,75.00
2019-01-24T10:58:00.603Z,74.70
2019-01-24T11:00:35.567Z,74.70
2019-01-24T11:03:06.990Z,75.30
2019-01-24T11:05:36.172Z,75.50
2019-01-24T11:08:06.243Z,75.70
2019-01-24T11:10:36.121Z,75.70
2019-01-24T11:13:05.415Z,75.60
2019-01-24T11:15:35.468Z,76.30
2019-01-24T11:18:07.346Z,75.70
2019-01-24T11:20:36.515Z,76.20
2019-01-24T11:23:06.271Z,74.70
2019-01-24T11:25:35.879Z,75.30
2019-01-24T11:28:05.560Z,74.90
2019-01-24T11:30:34.888Z,75.40
2019-01-24T11:33:05.589Z,75.00
2019-01-24T11:35:35.786Z,75.40
2019-01-24T11:38:07.079Z,76.10
2019-01-24T11:40:36.604Z,76.00
2019-01-24T11:43:07.090Z,76.70
2019-01-24T11:45:38.965Z,76.70
2019-01-24T11:48:08.304Z,75.80
2019-01-24T11:50:37.621Z,75.60
2019-01-24T11:53:06.893Z,74.90
2019-01-24T11:55:36.150Z,74.90
2019-01-24T11:58:06.168Z,74.70
2019-01-24T12:00:40.550Z,74.20
2019-01-24T12:03:09.741Z,75.70
2019-01-24T12:05:39.068Z,78.20
2019-01-24T12:08:09.129Z,78.40
2019-01-24T12:10:38.396Z,79.10
2019-01-24T12:13:07.951Z,79.00
2019-01-24T12:15:37.151Z,78.50
2019-01-24T12:18:06.335Z,76.80
2019-01-24T12:20:35.595Z,77.00
2019-01-24T12:23:05.179Z,77.50
2019-01-24T12:25:34.457Z,78.30
2019-01-24T12:28:04.063Z,77.70
2019-01-24T12:30:35.202Z,77.00
2019-01-24T12:33:05.524Z,77.80
2019-01-24T12:35:35.067Z,77.90
2019-01-24T12:38:05.033Z,78.00
2019-01-24T12:40:34.505Z,77.50
2019-01-24T12:43:04.091Z,77.90
2019-01-24T12:45:35.385Z,78.40
2019-01-24T12:48:05.278Z,77.70
2019-01-24T12:50:34.601Z,77.00
2019-01-24T12:53:03.872Z,77.40
2019-01-24T12:55:33.218Z,76.50
2019-01-24T12:58:02.561Z,75.30
2019-01-24T13:00:34.355Z,75.50
2019-01-24T13:03:03.702Z,76.80
2019-01-24T13:05:33.940Z,76.50
2019-01-24T13:08:03.253Z,75.00
2019-01-24T13:10:32.650Z,75.10
2019-01-24T13:13:01.969Z,76.00
2019-01-24T13:15:32.752Z,74.40
2019-01-24T13:18:02.157Z,74.40
2019-01-24T13:20:31.341Z,74.50
2019-01-24T13:23:00.613Z,75.30
2019-01-24T13:25:32.441Z,76.60
2019-01-24T13:28:01.694Z,77.40
2019-01-24T13:30:32.636Z,75.60
2019-01-24T13:33:02.746Z,76.00
2019-01-24T13:35:31.983Z,77.00
2019-01-24T13:38:01.208Z,77.70
2019-01-24T13:40:31.579Z,76.90
2019-01-24T13:43:01.788Z,77.70
2019-01-24T13:45:33.615Z,78.10
2019-01-24T13:48:02.888Z,78.70
2019-01-24T13:50:32.140Z,78.10
2019-01-24T13:53:01.335Z,78.50
2019-01-24T13:55:30.594Z,78.10
2019-01-24T13:57:59.931Z,78.40
2019-01-24T14:00:34.670Z,79.00
2019-01-24T14:03:13.099Z,79.60
2019-01-24T14:05:42.393Z,79.70
2019-01-24T14:08:11.647Z,80.60
2019-01-24T14:10:40.901Z,80.90
2019-01-24T14:13:10.183Z,80.40
2019-01-24T14:15:39.356Z,78.40
2019-01-24T14:18:08.926Z,78.20
2019-01-24T14:20:38.132Z,79.70
2019-01-24T14:23:07.453Z,80.30
2019-01-24T14:25:36.701Z,80.20
2019-01-24T14:28:06.553Z,81.40
2019-01-24T14:30:35.904Z,81.30
2019-01-24T14:33:05.736Z,80.90
2019-01-24T14:35:36.065Z,81.20
2019-01-24T14:38:06.783Z,82.00
2019-01-24T14:40:36.136Z,81.40
2019-01-24T14:43:06.129Z,82.50
2019-01-24T14:45:35.381Z,85.60
2019-01-24T14:48:05.718Z,85.00
2019-01-24T14:50:35.061Z,85.00
2019-01-24T14:53:04.722Z,85.90
2019-01-24T14:55:34.979Z,85.90
2019-01-24T14:58:04.645Z,87.10
2019-01-24T15:00:46.210Z,87.20
2019-01-24T15:03:15.596Z,86.50
2019-01-24T15:05:44.844Z,86.60
2019-01-24T15:08:14.896Z,86.00
2019-01-24T15:10:44.569Z,86.20
2019-01-24T15:13:13.929Z,86.70
2019-01-24T15:15:43.243Z,87.30
2019-01-24T15:18:12.603Z,87.90
2019-01-24T15:20:41.861Z,88.50
2019-01-24T15:23:11.198Z,90.10
2019-01-24T15:25:40.473Z,89.60
2019-01-24T15:28:09.788Z,91.00
2019-01-24T15:30:39.061Z,90.00
2019-01-24T15:33:08.433Z,91.40
2019-01-24T15:35:37.727Z,92.10
2019-01-24T15:38:07.130Z,92.10
2019-01-24T15:40:36.576Z,92.00
2019-01-24T15:43:06.680Z,92.80
2019-01-24T15:45:36.432Z,93.10
2019-01-24T15:48:06.589Z,92.70
2019-01-24T15:50:35.872Z,92.90
2019-01-24T15:53:05.455Z,93.80
2019-01-24T15:55:35.044Z,94.60
2019-01-24T15:58:04.342Z,93.80
2019-01-24T16:00:34.089Z,94.30
2019-01-24T16:03:03.961Z,94.60
2019-01-24T16:05:33.313Z,94.50
2019-01-24T16:08:02.675Z,95.50
2019-01-24T16:10:31.938Z,94.80
2019-01-24T16:13:01.219Z,94.80
2019-01-24T16:15:32.542Z,95.50
2019-01-24T16:18:02.005Z,96.60
2019-01-24T16:20:31.531Z,96.60
2019-01-24T16:23:00.824Z,96.20
2019-01-24T16:25:32.067Z,96.70
2019-01-24T16:28:01.376Z,97.90
2019-01-24T16:30:32.380Z,97.00
2019-01-24T16:33:02.559Z,96.80
2019-01-24T16:35:31.963Z,97.30
2019-01-24T16:38:01.372Z,98.60
2019-01-24T16:40:30.864Z,97.80
2019-01-24T16:43:00.156Z,97.90
2019-01-24T16:45:30.285Z,97.50
2019-01-24T16:47:59.863Z,98.40
2019-01-24T16:50:29.185Z,99.30
2019-01-24T16:52:58.460Z,98.20
2019-01-24T16:55:27.850Z,98.80
2019-01-24T16:57:57.208Z,99.90
2019-01-24T17:00:35.731Z,99.80
2019-01-24T17:03:06.393Z,99.00
2019-01-24T17:05:35.674Z,98.30
2019-01-24T17:08:06.303Z,99.20
2019-01-24T17:10:35.645Z,99.60
2019-01-24T17:13:05.982Z,98.10
2019-01-24T17:15:35.353Z,99.90
2019-01-24T17:18:05.917Z,98.80
2019-01-24T17:20:35.188Z,99.90
2019-01-24T17:23:05.287Z,99.90
2019-01-24T17:25:34.647Z,99.90
2019-01-24T17:28:04.766Z,99.90
2019-01-24T17:30:35.159Z,99.90
2019-01-24T17:33:05.981Z,99.90
2019-01-24T17:35:35.384Z,99.90
2019-01-24T17:38:04.715Z,99.90
2019-01-24T17:40:34.147Z,99.90
2019-01-24T17:43:03.608Z,99.90
2019-01-24T17:45:33.880Z,99.90
2019-01-24T17:48:03.168Z,99.90
2019-01-24T17:50:32.447Z,99.90
2019-01-24T17:53:01.853Z,99.90
2019-01-24T17:55:36.632Z,99.90
2019-01-24T17:58:08.097Z,99.90
2019-01-24T18:00:39.401Z,99.90
2019-01-24T18:03:08.766Z,99.90
2019-01-24T18:05:38.128Z,99.90
2019-01-24T18:08:07.414Z,99.90
2019-01-24T18:10:36.792Z,99.90
2019-01-24T18:13:06.586Z,99.90
2019-01-24T18:15:35.896Z,99.90
2019-01-24T18:18:07.793Z,99.90
2019-01-24T18:20:37.567Z,99.90
2019-01-24T18:23:07.546Z,99.90
2019-01-24T18:25:36.810Z,99.90
2019-01-24T18:28:07.817Z,99.90
2019-01-24T18:30:37.188Z,99.90
2019-01-24T18:33:07.192Z,99.90
2019-01-24T18:35:36.495Z,99.90
2019-01-24T18:38:06.743Z,99.90
2019-01-24T18:40:36.146Z,99.90
2019-01-24T18:43:25.696Z,99.90
2019-01-24T18:45:57.235Z,99.90
2019-01-24T18:48:26.597Z,99.90
2019-01-24T18:50:55.999Z,99.90
2019-01-24T18:53:25.314Z,99.90
2019-01-24T18:55:54.664Z,99.90
2019-01-24T18:58:24.191Z,99.90
2019-01-24T19:00:53.732Z,99.90
2019-01-24T19:03:22.991Z,99.90
2019-01-24T19:05:52.305Z,99.90
2019-01-24T19:08:22.180Z,99.90
2019-01-24T19:10:51.510Z,99.90
2019-01-24T19:13:20.780Z,99.90
2019-01-24T19:15:53.118Z,99.90
2019-01-24T19:18:22.123Z,99.90
2019-01-24T19:20:52.223Z,99.90
2019-01-24T19:23:21.654Z,99.90
2019-01-24T19:25:51.036Z,99.90
2019-01-24T19:28:20.787Z,99.90
2019-01-24T19:30:50.152Z,99.90
2019-01-24T19:33:19.469Z,99.90
2019-01-24T19:35:48.855Z,99.90
2019-01-24T19:38:18.168Z,99.90
2019-01-24T19:40:47.525Z,99.90
2019-01-24T19:43:16.894Z,99.90
2019-01-24T19:45:46.290Z,99.90
2019-01-24T19:48:15.477Z,99.90
2019-01-24T19:50:44.747Z,99.90
2019-01-24T19:53:14.049Z,99.90
2019-01-24T19:55:43.254Z,99.90
2019-01-24T19:58:13.936Z,99.90
2019-01-24T20:00:43.283Z,99.90
2019-01-24T20:03:12.570Z,99.90
2019-01-24T20:05:41.898Z,99.90
2019-01-24T20:08:11.243Z,99.90
2019-01-24T20:10:40.689Z,99.90
2019-01-24T20:13:10.073Z,99.90
2019-01-24T20:15:39.569Z,99.90
2019-01-24T20:18:09.243Z,99.90
2019-01-24T20:20:38.742Z,99.90
2019-01-24T20:23:08.301Z,99.90
2019-01-24T20:25:37.732Z,99.90
2019-01-24T20:28:07.098Z,99.90
2019-01-24T20:30:36.684Z,99.90
2019-01-24T20:33:06.719Z,99.90
2019-01-24T20:35:42.729Z,99.90
2019-01-24T20:38:12.700Z,99.90
2019-01-24T20:40:42.090Z,99.90
2019-01-24T20:43:13.041Z,99.90
2019-01-24T20:45:42.567Z,99.90
2019-01-24T20:48:11.906Z,99.90
2019-01-24T20:50:41.353Z,99.90
2019-01-24T20:53:10.787Z,99.90
2019-01-24T20:55:40.225Z,99.90
2019-01-24T20:58:09.678Z,99.90
2019-01-24T21:00:39.156Z,99.90
2019-01-24T21:03:08.788Z,99.90
2019-01-24T21:05:38.158Z,99.90
2019-01-24T21:08:07.551Z,99.90
2019-01-24T21:10:36.962Z,99.90
2019-01-24T21:13:06.443Z,99.90
2019-01-24T21:15:35.805Z,99.90
2019-01-24T21:18:05.837Z,99.90
2019-01-24T21:20:35.479Z,99.90
2019-01-24T21:23:05.565Z,99.90
2019-01-24T21:25:35.003Z,99.90
2019-01-24T21:28:04.974Z,99.90
2019-01-24T21:30:36.017Z,99.90
2019-01-24T21:33:06.599Z,99.90
2019-01-24T21:35:35.968Z,99.90
2019-01-24T21:38:07.857Z,99.90
2019-01-24T21:40:37.167Z,99.90
2019-01-24T21:43:07.464Z,99.90
2019-01-24T21:45:37.424Z,99.90
2019-01-24T21:48:07.788Z,99.90
2019-01-24T21:50:37.233Z,99.90
2019-01-24T21:53:07.654Z,99.90
2019-01-24T21:55:37.039Z,99.90
2019-01-24T21:58:07.814Z,99.90
2019-01-24T22:00:37.290Z,99.90
2019-01-24T22:03:07.594Z,99.90
2019-01-24T22:05:37.243Z,99.90
2019-01-24T22:08:07.467Z,99.90
2019-01-24T22:10:36.840Z,99.90
2019-01-24T22:13:06.957Z,99.90
2019-01-24T22:15:36.718Z,99.90
2019-01-24T22:18:06.725Z,99.90
2019-01-24T22:20:36.187Z,99.90
2019-01-24T22:23:05.684Z,99.90
2019-01-24T22:25:36.290Z,99.90
2019-01-24T22:28:06.773Z,99.90
2019-01-24T22:30:41.336Z,99.90
2019-01-24T22:33:10.748Z,99.90
2019-01-24T22:35:40.166Z,99.90
2019-01-24T22:38:09.630Z,99.90
2019-01-24T22:40:38.969Z,99.90
2019-01-24T22:43:08.991Z,99.90
2019-01-24T22:45:38.296Z,99.90
2019-01-24T22:48:07.743Z,99.90
2019-01-24T22:50:37.066Z,99.90
2019-01-24T22:53:07.044Z,99.90
2019-01-24T22:55:36.505Z,99.90
2019-01-24T22:58:07.008Z,99.90
2019-01-24T23:00:58.064Z,99.90
2019-01-24T23:03:48.811Z,99.90
2019-01-24T23:06:18.482Z,99.90
2019-01-24T23:08:47.875Z,99.90
2019-01-24T23:11:17.276Z,99.90
2019-01-24T23:13:46.670Z,99.90
2019-01-24T23:16:16.085Z,99.90
2019-01-24T23:18:45.380Z,99.90
2019-01-24T23:21:14.898Z,99.90
2019-01-24T23:23:44.365Z,99.90
2019-01-24T23:26:13.611Z,99.90
2019-01-24T23:28:43.015Z,99.90
2019-01-24T23:31:12.892Z,99.90
2019-01-24T23:33:42.300Z,99.90
2019-01-24T23:36:11.792Z,99.90
2019-01-24T23:38:41.076Z,99.90
2019-01-24T23:41:10.499Z,99.90
2019-01-24T23:43:40.812Z,99.90
2019-01-24T23:46:10.330Z,99.90
2019-01-24T23:48:39.839Z,99.90
2019-01-24T23:51:09.205Z,99.90
2019-01-24T23:53:38.512Z,99.90
2019-01-24T23:56:07.899Z,99.90
2019-01-24T23:58:37.289Z,99.90
